sensor_id;sensor_type;location;lat;lon;timestamp;P1;durP1;ratioP1;P2;durP2;ratioP2
36441;SDS011;64346;50.820;16.274;2023-01-24T00:01:02;34.50;;;16.30;;
36441;SDS011;64346;50.820;16.274;2023-01-24T00:03:32;32.17;;;16.75;;
36441;SDS011;64346;50.820;16.274;2023-01-24T00:05:59;37.90;;;17.83;;
36441;SDS011;64346;50.820;16.274;2023-01-24T00:08:26;33.95;;;17.75;;
36441;SDS011;64346;50.820;16.274;2023-01-24T00:10:57;34.20;;;16.15;;
36441;SDS011;64346;50.820;16.274;2023-01-24T00:13:31;33.88;;;17.08;;
36441;SDS011;64346;50.820;16.274;2023-01-24T00:16:16;34.90;;;16.95;;
36441;SDS011;64346;50.820;16.274;2023-01-24T00:18:46;36.40;;;16.67;;
36441;SDS011;64346;50.820;16.274;2023-01-24T00:21:15;38.00;;;17.80;;
36441;SDS011;64346;50.820;16.274;2023-01-24T00:23:47;38.83;;;18.05;;
36441;SDS011;64346;50.820;16.274;2023-01-24T00:26:17;38.45;;;17.70;;
36441;SDS011;64346;50.820;16.274;2023-01-24T00:28:48;44.10;;;18.17;;
36441;SDS011;64346;50.820;16.274;2023-01-24T00:31:16;42.60;;;18.73;;
36441;SDS011;64346;50.820;16.274;2023-01-24T00:33:44;51.72;;;18.95;;
36441;SDS011;64346;50.820;16.274;2023-01-24T00:36:11;43.28;;;18.58;;
36441;SDS011;64346;50.820;16.274;2023-01-24T00:38:39;49.08;;;19.55;;
36441;SDS011;64346;50.820;16.274;2023-01-24T00:41:06;50.63;;;19.30;;
36441;SDS011;64346;50.820;16.274;2023-01-24T00:43:34;59.55;;;19.77;;
36441;SDS011;64346;50.820;16.274;2023-01-24T00:46:04;52.88;;;18.65;;
36441;SDS011;64346;50.820;16.274;2023-01-24T00:48:32;58.45;;;20.35;;
36441;SDS011;64346;50.820;16.274;2023-01-24T00:51:02;50.55;;;21.25;;
36441;SDS011;64346;50.820;16.274;2023-01-24T00:53:30;88.10;;;23.08;;
36441;SDS011;64346;50.820;16.274;2023-01-24T00:55:57;72.05;;;23.25;;
36441;SDS011;64346;50.820;16.274;2023-01-24T00:58:25;61.33;;;21.63;;
36441;SDS011;64346;50.820;16.274;2023-01-24T01:00:55;64.82;;;21.40;;
36441;SDS011;64346;50.820;16.274;2023-01-24T01:03:23;63.58;;;20.52;;
36441;SDS011;64346;50.820;16.274;2023-01-24T01:08:29;63.90;;;22.67;;
36441;SDS011;64346;50.820;16.274;2023-01-24T01:10:56;48.00;;;21.42;;
36441;SDS011;64346;50.820;16.274;2023-01-24T01:13:24;72.32;;;22.85;;
36441;SDS011;64346;50.820;16.274;2023-01-24T01:16:00;68.18;;;22.17;;
36441;SDS011;64346;50.820;16.274;2023-01-24T01:18:37;65.15;;;22.77;;
36441;SDS011;64346;50.820;16.274;2023-01-24T01:21:05;60.10;;;21.45;;
36441;SDS011;64346;50.820;16.274;2023-01-24T01:23:33;84.65;;;23.95;;
36441;SDS011;64346;50.820;16.274;2023-01-24T01:26:01;60.92;;;22.75;;
36441;SDS011;64346;50.820;16.274;2023-01-24T01:28:30;56.22;;;22.15;;
36441;SDS011;64346;50.820;16.274;2023-01-24T01:30:58;73.45;;;24.15;;
36441;SDS011;64346;50.820;16.274;2023-01-24T01:33:26;69.60;;;22.70;;
36441;SDS011;64346;50.820;16.274;2023-01-24T01:35:53;65.47;;;23.05;;
36441;SDS011;64346;50.820;16.274;2023-01-24T01:38:21;65.03;;;22.48;;
36441;SDS011;64346;50.820;16.274;2023-01-24T01:40:49;59.38;;;22.35;;
36441;SDS011;64346;50.820;16.274;2023-01-24T01:43:19;88.10;;;22.33;;
36441;SDS011;64346;50.820;16.274;2023-01-24T01:45:52;54.85;;;21.95;;
36441;SDS011;64346;50.820;16.274;2023-01-24T01:48:35;62.92;;;22.98;;
36441;SDS011;64346;50.820;16.274;2023-01-24T01:53:57;46.03;;;20.10;;
36441;SDS011;64346;50.820;16.274;2023-01-24T01:56:44;48.40;;;21.83;;
36441;SDS011;64346;50.820;16.274;2023-01-24T01:59:19;72.97;;;22.27;;
36441;SDS011;64346;50.820;16.274;2023-01-24T02:01:55;53.33;;;21.17;;
36441;SDS011;64346;50.820;16.274;2023-01-24T02:04:25;52.30;;;21.13;;
36441;SDS011;64346;50.820;16.274;2023-01-24T02:07:03;82.63;;;21.50;;
36441;SDS011;64346;50.820;16.274;2023-01-24T02:09:38;103.97;;;21.15;;
36441;SDS011;64346;50.820;16.274;2023-01-24T02:12:09;55.53;;;20.88;;
36441;SDS011;64346;50.820;16.274;2023-01-24T02:14:50;62.55;;;21.10;;
36441;SDS011;64346;50.820;16.274;2023-01-24T02:17:30;45.25;;;21.40;;
36441;SDS011;64346;50.820;16.274;2023-01-24T02:20:06;66.20;;;21.13;;
36441;SDS011;64346;50.820;16.274;2023-01-24T02:25:15;45.78;;;19.08;;
36441;SDS011;64346;50.820;16.274;2023-01-24T02:27:50;43.83;;;20.88;;
36441;SDS011;64346;50.820;16.274;2023-01-24T02:30:18;60.00;;;21.00;;
36441;SDS011;64346;50.820;16.274;2023-01-24T02:32:45;48.13;;;20.38;;
36441;SDS011;64346;50.820;16.274;2023-01-24T02:38:19;49.92;;;20.67;;
36441;SDS011;64346;50.820;16.274;2023-01-24T02:40:50;44.30;;;18.30;;
36441;SDS011;64346;50.820;16.274;2023-01-24T02:43:20;62.38;;;20.30;;
36441;SDS011;64346;50.820;16.274;2023-01-24T02:45:51;48.10;;;20.48;;
36441;SDS011;64346;50.820;16.274;2023-01-24T02:48:19;54.17;;;20.23;;
36441;SDS011;64346;50.820;16.274;2023-01-24T02:50:46;56.65;;;20.00;;
36441;SDS011;64346;50.820;16.274;2023-01-24T02:53:16;70.53;;;21.52;;
36441;SDS011;64346;50.820;16.274;2023-01-24T02:55:44;96.53;;;21.40;;
36441;SDS011;64346;50.820;16.274;2023-01-24T02:58:11;51.70;;;21.38;;
36441;SDS011;64346;50.820;16.274;2023-01-24T03:00:39;46.38;;;21.02;;
36441;SDS011;64346;50.820;16.274;2023-01-24T03:03:08;59.15;;;21.38;;
36441;SDS011;64346;50.820;16.274;2023-01-24T03:05:38;56.67;;;20.42;;
36441;SDS011;64346;50.820;16.274;2023-01-24T03:08:06;100.65;;;22.88;;
36441;SDS011;64346;50.820;16.274;2023-01-24T03:10:34;60.47;;;21.35;;
36441;SDS011;64346;50.820;16.274;2023-01-24T03:13:04;55.20;;;22.10;;
36441;SDS011;64346;50.820;16.274;2023-01-24T03:15:33;74.32;;;22.52;;
36441;SDS011;64346;50.820;16.274;2023-01-24T03:18:01;177.65;;;25.83;;
36441;SDS011;64346;50.820;16.274;2023-01-24T03:20:28;105.43;;;24.65;;
36441;SDS011;64346;50.820;16.274;2023-01-24T03:22:55;96.00;;;23.73;;
36441;SDS011;64346;50.820;16.274;2023-01-24T03:25:23;66.15;;;23.77;;
36441;SDS011;64346;50.820;16.274;2023-01-24T03:27:50;151.85;;;25.08;;
36441;SDS011;64346;50.820;16.274;2023-01-24T03:30:17;121.70;;;23.63;;
36441;SDS011;64346;50.820;16.274;2023-01-24T03:32:45;109.40;;;24.25;;
36441;SDS011;64346;50.820;16.274;2023-01-24T03:35:12;87.22;;;22.27;;
36441;SDS011;64346;50.820;16.274;2023-01-24T03:37:39;96.88;;;25.20;;
36441;SDS011;64346;50.820;16.274;2023-01-24T03:40:08;102.55;;;25.65;;
36441;SDS011;64346;50.820;16.274;2023-01-24T03:42:38;153.48;;;26.05;;
36441;SDS011;64346;50.820;16.274;2023-01-24T03:45:05;184.20;;;26.67;;
36441;SDS011;64346;50.820;16.274;2023-01-24T03:47:33;152.38;;;27.33;;
36441;SDS011;64346;50.820;16.274;2023-01-24T03:50:00;97.05;;;26.10;;
36441;SDS011;64346;50.820;16.274;2023-01-24T03:52:27;128.30;;;28.10;;
36441;SDS011;64346;50.820;16.274;2023-01-24T03:54:57;114.75;;;26.23;;
36441;SDS011;64346;50.820;16.274;2023-01-24T03:57:27;145.30;;;29.20;;
36441;SDS011;64346;50.820;16.274;2023-01-24T03:59:57;135.30;;;26.77;;
36441;SDS011;64346;50.820;16.274;2023-01-24T04:02:27;164.13;;;27.23;;
36441;SDS011;64346;50.820;16.274;2023-01-24T04:04:54;139.27;;;27.80;;
36441;SDS011;64346;50.820;16.274;2023-01-24T04:07:22;106.45;;;26.42;;
36441;SDS011;64346;50.820;16.274;2023-01-24T04:09:53;128.55;;;29.23;;
36441;SDS011;64346;50.820;16.274;2023-01-24T04:12:20;186.23;;;30.60;;
36441;SDS011;64346;50.820;16.274;2023-01-24T04:14:47;179.45;;;29.27;;
36441;SDS011;64346;50.820;16.274;2023-01-24T04:17:15;354.23;;;36.75;;
36441;SDS011;64346;50.820;16.274;2023-01-24T04:19:44;166.65;;;30.00;;
36441;SDS011;64346;50.820;16.274;2023-01-24T04:22:11;93.07;;;29.17;;
36441;SDS011;64346;50.820;16.274;2023-01-24T04:24:44;123.90;;;27.85;;
36441;SDS011;64346;50.820;16.274;2023-01-24T04:27:11;94.07;;;26.98;;
36441;SDS011;64346;50.820;16.274;2023-01-24T04:29:41;91.00;;;28.58;;
36441;SDS011;64346;50.820;16.274;2023-01-24T04:32:08;137.10;;;30.05;;
36441;SDS011;64346;50.820;16.274;2023-01-24T04:34:35;225.52;;;32.65;;
36441;SDS011;64346;50.820;16.274;2023-01-24T04:37:05;125.50;;;28.73;;
36441;SDS011;64346;50.820;16.274;2023-01-24T04:39:32;110.22;;;28.90;;
36441;SDS011;64346;50.820;16.274;2023-01-24T04:42:00;138.50;;;30.05;;
36441;SDS011;64346;50.820;16.274;2023-01-24T04:44:27;164.07;;;31.50;;
36441;SDS011;64346;50.820;16.274;2023-01-24T04:46:54;104.30;;;31.70;;
36441;SDS011;64346;50.820;16.274;2023-01-24T04:49:21;162.65;;;30.70;;
36441;SDS011;64346;50.820;16.274;2023-01-24T04:51:49;152.88;;;33.60;;
36441;SDS011;64346;50.820;16.274;2023-01-24T04:54:19;125.00;;;30.15;;
36441;SDS011;64346;50.820;16.274;2023-01-24T04:56:49;143.48;;;31.80;;
36441;SDS011;64346;50.820;16.274;2023-01-24T04:59:16;160.30;;;32.03;;
36441;SDS011;64346;50.820;16.274;2023-01-24T05:01:44;186.02;;;32.15;;
36441;SDS011;64346;50.820;16.274;2023-01-24T05:04:11;184.38;;;34.53;;
36441;SDS011;64346;50.820;16.274;2023-01-24T05:06:41;119.25;;;30.92;;
36441;SDS011;64346;50.820;16.274;2023-01-24T05:09:08;217.20;;;33.80;;
36441;SDS011;64346;50.820;16.274;2023-01-24T05:11:35;169.95;;;32.00;;
36441;SDS011;64346;50.820;16.274;2023-01-24T05:14:03;209.65;;;34.67;;
36441;SDS011;64346;50.820;16.274;2023-01-24T05:16:30;98.32;;;30.50;;
36441;SDS011;64346;50.820;16.274;2023-01-24T05:18:57;148.55;;;32.17;;
36441;SDS011;64346;50.820;16.274;2023-01-24T05:21:25;120.10;;;31.83;;
36441;SDS011;64346;50.820;16.274;2023-01-24T05:23:54;154.73;;;31.00;;
36441;SDS011;64346;50.820;16.274;2023-01-24T05:26:23;138.15;;;31.38;;
36441;SDS011;64346;50.820;16.274;2023-01-24T05:28:52;209.15;;;34.28;;
36441;SDS011;64346;50.820;16.274;2023-01-24T05:31:20;209.20;;;34.00;;
36441;SDS011;64346;50.820;16.274;2023-01-24T05:33:50;138.07;;;33.17;;
36441;SDS011;64346;50.820;16.274;2023-01-24T05:36:18;144.90;;;32.53;;
36441;SDS011;64346;50.820;16.274;2023-01-24T05:38:49;156.00;;;32.92;;
36441;SDS011;64346;50.820;16.274;2023-01-24T05:41:18;227.23;;;37.85;;
36441;SDS011;64346;50.820;16.274;2023-01-24T05:43:46;162.13;;;34.20;;
36441;SDS011;64346;50.820;16.274;2023-01-24T05:46:22;262.00;;;38.45;;
36441;SDS011;64346;50.820;16.274;2023-01-24T05:48:52;149.77;;;34.15;;
36441;SDS011;64346;50.820;16.274;2023-01-24T05:51:19;152.45;;;34.40;;
36441;SDS011;64346;50.820;16.274;2023-01-24T05:53:46;169.25;;;37.35;;
36441;SDS011;64346;50.820;16.274;2023-01-24T05:56:18;192.32;;;37.53;;
36441;SDS011;64346;50.820;16.274;2023-01-24T05:58:48;165.35;;;35.42;;
36441;SDS011;64346;50.820;16.274;2023-01-24T06:01:18;214.63;;;38.10;;
36441;SDS011;64346;50.820;16.274;2023-01-24T06:03:48;147.60;;;37.20;;
36441;SDS011;64346;50.820;16.274;2023-01-24T06:06:20;184.45;;;40.28;;
36441;SDS011;64346;50.820;16.274;2023-01-24T06:08:48;136.18;;;33.55;;
36441;SDS011;64346;50.820;16.274;2023-01-24T06:11:17;151.05;;;34.42;;
36441;SDS011;64346;50.820;16.274;2023-01-24T06:13:48;297.85;;;39.75;;
36441;SDS011;64346;50.820;16.274;2023-01-24T06:16:20;159.45;;;34.58;;
36441;SDS011;64346;50.820;16.274;2023-01-24T06:18:49;294.73;;;40.28;;
36441;SDS011;64346;50.820;16.274;2023-01-24T06:23:49;211.98;;;64.70;;
36441;SDS011;64346;50.820;16.274;2023-01-24T06:26:17;154.07;;;36.10;;
36441;SDS011;64346;50.820;16.274;2023-01-24T06:28:44;178.30;;;38.15;;
36441;SDS011;64346;50.820;16.274;2023-01-24T06:31:28;210.02;;;38.67;;
36441;SDS011;64346;50.820;16.274;2023-01-24T06:34:06;163.52;;;35.78;;
36441;SDS011;64346;50.820;16.274;2023-01-24T06:36:50;181.68;;;35.17;;
36441;SDS011;64346;50.820;16.274;2023-01-24T06:39:19;215.95;;;38.47;;
36441;SDS011;64346;50.820;16.274;2023-01-24T06:41:49;260.10;;;38.50;;
36441;SDS011;64346;50.820;16.274;2023-01-24T06:44:18;155.20;;;37.47;;
36441;SDS011;64346;50.820;16.274;2023-01-24T06:46:46;156.93;;;36.20;;
36441;SDS011;64346;50.820;16.274;2023-01-24T06:49:13;280.05;;;43.90;;
36441;SDS011;64346;50.820;16.274;2023-01-24T06:51:41;301.05;;;44.20;;
36441;SDS011;64346;50.820;16.274;2023-01-24T06:54:08;144.60;;;36.30;;
36441;SDS011;64346;50.820;16.274;2023-01-24T06:56:35;133.15;;;34.33;;
36441;SDS011;64346;50.820;16.274;2023-01-24T06:59:02;138.05;;;35.65;;
36441;SDS011;64346;50.820;16.274;2023-01-24T07:01:34;271.42;;;40.80;;
36441;SDS011;64346;50.820;16.274;2023-01-24T07:04:04;288.23;;;41.58;;
36441;SDS011;64346;50.820;16.274;2023-01-24T07:06:34;131.30;;;34.15;;
36441;SDS011;64346;50.820;16.274;2023-01-24T07:09:01;174.02;;;36.30;;
36441;SDS011;64346;50.820;16.274;2023-01-24T07:11:28;130.23;;;37.47;;
36441;SDS011;64346;50.820;16.274;2023-01-24T07:13:56;205.10;;;38.13;;
36441;SDS011;64346;50.820;16.274;2023-01-24T07:16:25;149.60;;;34.72;;
36441;SDS011;64346;50.820;16.274;2023-01-24T07:18:53;127.53;;;33.90;;
36441;SDS011;64346;50.820;16.274;2023-01-24T07:21:23;116.30;;;33.45;;
36441;SDS011;64346;50.820;16.274;2023-01-24T07:23:50;151.68;;;34.25;;
36441;SDS011;64346;50.820;16.274;2023-01-24T07:26:24;201.65;;;34.60;;
36441;SDS011;64346;50.820;16.274;2023-01-24T07:28:52;140.20;;;33.50;;
36441;SDS011;64346;50.820;16.274;2023-01-24T07:31:19;158.90;;;35.33;;
36441;SDS011;64346;50.820;16.274;2023-01-24T07:33:46;115.85;;;31.27;;
36441;SDS011;64346;50.820;16.274;2023-01-24T07:36:14;127.57;;;33.20;;
36441;SDS011;64346;50.820;16.274;2023-01-24T07:38:41;154.35;;;32.88;;
36441;SDS011;64346;50.820;16.274;2023-01-24T07:41:09;148.90;;;33.65;;
36441;SDS011;64346;50.820;16.274;2023-01-24T07:43:36;132.82;;;33.70;;
36441;SDS011;64346;50.820;16.274;2023-01-24T07:46:04;138.10;;;33.65;;
36441;SDS011;64346;50.820;16.274;2023-01-24T07:48:31;226.95;;;34.65;;
36441;SDS011;64346;50.820;16.274;2023-01-24T07:50:59;104.85;;;29.77;;
36441;SDS011;64346;50.820;16.274;2023-01-24T07:53:29;98.68;;;31.63;;
36441;SDS011;64346;50.820;16.274;2023-01-24T07:56:00;183.18;;;33.53;;
36441;SDS011;64346;50.820;16.274;2023-01-24T07:58:28;159.93;;;32.55;;
36441;SDS011;64346;50.820;16.274;2023-01-24T08:00:59;153.18;;;32.42;;
36441;SDS011;64346;50.820;16.274;2023-01-24T08:03:26;142.30;;;34.25;;
36441;SDS011;64346;50.820;16.274;2023-01-24T08:05:54;135.02;;;34.65;;
36441;SDS011;64346;50.820;16.274;2023-01-24T08:08:23;160.57;;;34.90;;
36441;SDS011;64346;50.820;16.274;2023-01-24T08:10:51;175.90;;;36.20;;
36441;SDS011;64346;50.820;16.274;2023-01-24T08:13:18;203.70;;;35.33;;
36441;SDS011;64346;50.820;16.274;2023-01-24T08:15:45;147.82;;;35.13;;
36441;SDS011;64346;50.820;16.274;2023-01-24T08:18:12;106.18;;;33.70;;
36441;SDS011;64346;50.820;16.274;2023-01-24T08:20:40;309.10;;;41.58;;
36441;SDS011;64346;50.820;16.274;2023-01-24T08:23:07;141.07;;;36.63;;
36441;SDS011;64346;50.820;16.274;2023-01-24T08:25:34;147.98;;;35.75;;
36441;SDS011;64346;50.820;16.274;2023-01-24T08:28:04;256.58;;;39.78;;
36441;SDS011;64346;50.820;16.274;2023-01-24T08:30:31;135.32;;;35.42;;
36441;SDS011;64346;50.820;16.274;2023-01-24T08:33:01;198.10;;;35.85;;
36441;SDS011;64346;50.820;16.274;2023-01-24T08:35:32;149.15;;;36.58;;
36441;SDS011;64346;50.820;16.274;2023-01-24T08:38:00;249.88;;;65.97;;
36441;SDS011;64346;50.820;16.274;2023-01-24T08:40:30;142.10;;;36.53;;
36441;SDS011;64346;50.820;16.274;2023-01-24T08:43:15;165.15;;;38.80;;
36441;SDS011;64346;50.820;16.274;2023-01-24T08:45:44;181.23;;;38.67;;
36441;SDS011;64346;50.820;16.274;2023-01-24T08:48:11;241.60;;;41.97;;
36441;SDS011;64346;50.820;16.274;2023-01-24T08:50:38;135.02;;;36.50;;
36441;SDS011;64346;50.820;16.274;2023-01-24T08:53:05;122.75;;;37.70;;
36441;SDS011;64346;50.820;16.274;2023-01-24T08:55:33;138.35;;;38.60;;
36441;SDS011;64346;50.820;16.274;2023-01-24T08:58:03;177.15;;;39.75;;
36441;SDS011;64346;50.820;16.274;2023-01-24T09:00:31;188.80;;;39.55;;
36441;SDS011;64346;50.820;16.274;2023-01-24T09:02:58;114.00;;;34.95;;
36441;SDS011;64346;50.820;16.274;2023-01-24T09:05:27;149.48;;;34.30;;
36441;SDS011;64346;50.820;16.274;2023-01-24T09:07:59;162.05;;;35.85;;
36441;SDS011;64346;50.820;16.274;2023-01-24T09:10:26;183.35;;;34.03;;
36441;SDS011;64346;50.820;16.274;2023-01-24T09:12:53;174.73;;;35.70;;
36441;SDS011;64346;50.820;16.274;2023-01-24T09:15:21;134.98;;;41.13;;
36441;SDS011;64346;50.820;16.274;2023-01-24T09:17:51;156.75;;;34.47;;
36441;SDS011;64346;50.820;16.274;2023-01-24T09:20:18;119.90;;;34.50;;
36441;SDS011;64346;50.820;16.274;2023-01-24T09:22:45;120.72;;;33.88;;
36441;SDS011;64346;50.820;16.274;2023-01-24T09:25:13;99.65;;;33.03;;
36441;SDS011;64346;50.820;16.274;2023-01-24T09:27:40;124.85;;;34.88;;
36441;SDS011;64346;50.820;16.274;2023-01-24T09:30:08;85.93;;;33.67;;
36441;SDS011;64346;50.820;16.274;2023-01-24T09:32:36;137.48;;;34.17;;
36441;SDS011;64346;50.820;16.274;2023-01-24T09:35:03;79.57;;;32.63;;
36441;SDS011;64346;50.820;16.274;2023-01-24T09:37:31;111.88;;;33.90;;
36441;SDS011;64346;50.820;16.274;2023-01-24T09:39:58;137.45;;;34.65;;
36441;SDS011;64346;50.820;16.274;2023-01-24T09:42:33;143.15;;;32.83;;
36441;SDS011;64346;50.820;16.274;2023-01-24T09:47:50;90.63;;;36.78;;
36441;SDS011;64346;50.820;16.274;2023-01-24T09:53:19;172.70;;;33.17;;
36441;SDS011;64346;50.820;16.274;2023-01-24T09:55:54;98.72;;;33.55;;
36441;SDS011;64346;50.820;16.274;2023-01-24T10:01:03;105.90;;;33.10;;
36441;SDS011;64346;50.820;16.274;2023-01-24T10:03:35;130.75;;;33.33;;
36441;SDS011;64346;50.820;16.274;2023-01-24T10:14:34;117.68;;;34.22;;
36441;SDS011;64346;50.820;16.274;2023-01-24T10:20:48;76.50;;;32.97;;
36441;SDS011;64346;50.820;16.274;2023-01-24T10:33:48;107.00;;;31.92;;
36441;SDS011;64346;50.820;16.274;2023-01-24T10:36:24;130.43;;;32.78;;
36441;SDS011;64346;50.820;16.274;2023-01-24T10:39:11;125.18;;;33.03;;
36441;SDS011;64346;50.820;16.274;2023-01-24T10:41:38;83.40;;;30.25;;
36441;SDS011;64346;50.820;16.274;2023-01-24T10:44:12;87.88;;;29.83;;
36441;SDS011;64346;50.820;16.274;2023-01-24T10:49:51;79.38;;;30.08;;
36441;SDS011;64346;50.820;16.274;2023-01-24T10:52:31;92.85;;;33.17;;
36441;SDS011;64346;50.820;16.274;2023-01-24T10:55:00;82.68;;;33.13;;
36441;SDS011;64346;50.820;16.274;2023-01-24T10:57:44;130.30;;;31.52;;
36441;SDS011;64346;50.820;16.274;2023-01-24T11:02:49;79.95;;;31.25;;
36441;SDS011;64346;50.820;16.274;2023-01-24T11:05:20;76.20;;;31.60;;
36441;SDS011;64346;50.820;16.274;2023-01-24T11:07:50;69.45;;;29.67;;
36441;SDS011;64346;50.820;16.274;2023-01-24T11:12:48;76.72;;;31.23;;
36441;SDS011;64346;50.820;16.274;2023-01-24T11:15:25;69.88;;;29.60;;
36441;SDS011;64346;50.820;16.274;2023-01-24T11:18:05;83.15;;;28.90;;
36441;SDS011;64346;50.820;16.274;2023-01-24T11:20:38;69.60;;;28.83;;
36441;SDS011;64346;50.820;16.274;2023-01-24T11:23:18;74.47;;;28.75;;
36441;SDS011;64346;50.820;16.274;2023-01-24T11:26:00;64.75;;;26.90;;
36441;SDS011;64346;50.820;16.274;2023-01-24T11:28:36;70.25;;;27.55;;
36441;SDS011;64346;50.820;16.274;2023-01-24T11:31:14;58.08;;;25.73;;
36441;SDS011;64346;50.820;16.274;2023-01-24T11:33:59;64.45;;;25.48;;
36441;SDS011;64346;50.820;16.274;2023-01-24T11:42:17;61.47;;;26.75;;
36441;SDS011;64346;50.820;16.274;2023-01-24T11:44:51;94.30;;;28.70;;
36441;SDS011;64346;50.820;16.274;2023-01-24T11:47:45;70.72;;;26.10;;
36441;SDS011;64346;50.820;16.274;2023-01-24T11:50:32;100.40;;;28.20;;
36441;SDS011;64346;50.820;16.274;2023-01-24T11:56:48;75.13;;;25.80;;
36441;SDS011;64346;50.820;16.274;2023-01-24T12:10:06;81.93;;;30.00;;
36441;SDS011;64346;50.820;16.274;2023-01-24T12:12:41;149.00;;;31.38;;
36441;SDS011;64346;50.820;16.274;2023-01-24T12:15:27;75.55;;;28.98;;
36441;SDS011;64346;50.820;16.274;2023-01-24T12:18:19;106.93;;;32.83;;
36441;SDS011;64346;50.820;16.274;2023-01-24T12:21:13;100.72;;;35.40;;
36441;SDS011;64346;50.820;16.274;2023-01-24T12:26:21;91.97;;;34.50;;
36441;SDS011;64346;50.820;16.274;2023-01-24T12:28:59;119.97;;;32.78;;
36441;SDS011;64346;50.820;16.274;2023-01-24T12:31:30;98.28;;;32.42;;
36441;SDS011;64346;50.820;16.274;2023-01-24T12:34:09;126.95;;;32.13;;
36441;SDS011;64346;50.820;16.274;2023-01-24T12:40:00;95.18;;;39.00;;
36441;SDS011;64346;50.820;16.274;2023-01-24T12:42:55;86.57;;;37.35;;
36441;SDS011;64346;50.820;16.274;2023-01-24T12:50:57;81.13;;;27.85;;
36441;SDS011;64346;50.820;16.274;2023-01-24T12:56:23;83.95;;;30.27;;
36441;SDS011;64346;50.820;16.274;2023-01-24T12:58:58;107.28;;;37.58;;
36441;SDS011;64346;50.820;16.274;2023-01-24T13:01:34;214.18;;;32.45;;
36441;SDS011;64346;50.820;16.274;2023-01-24T13:04:30;140.63;;;28.90;;
36441;SDS011;64346;50.820;16.274;2023-01-24T13:09:50;103.63;;;29.02;;
36441;SDS011;64346;50.820;16.274;2023-01-24T13:12:28;160.27;;;31.23;;
36441;SDS011;64346;50.820;16.274;2023-01-24T13:14:58;94.90;;;29.13;;
36441;SDS011;64346;50.820;16.274;2023-01-24T13:23:27;66.38;;;26.38;;
36441;SDS011;64346;50.820;16.274;2023-01-24T13:28:34;79.60;;;24.77;;
36441;SDS011;64346;50.820;16.274;2023-01-24T13:33:49;69.38;;;24.70;;
36441;SDS011;64346;50.820;16.274;2023-01-24T13:36:30;88.65;;;28.38;;
36441;SDS011;64346;50.820;16.274;2023-01-24T13:39:00;115.75;;;27.77;;
36441;SDS011;64346;50.820;16.274;2023-01-24T13:55:00;77.05;;;28.23;;
36441;SDS011;64346;50.820;16.274;2023-01-24T13:57:30;88.93;;;29.38;;
36441;SDS011;64346;50.820;16.274;2023-01-24T14:00:03;88.68;;;27.40;;
36441;SDS011;64346;50.820;16.274;2023-01-24T14:10:51;91.90;;;31.27;;
36441;SDS011;64346;50.820;16.274;2023-01-24T14:21:18;111.85;;;34.33;;
36441;SDS011;64346;50.820;16.274;2023-01-24T14:23:50;97.68;;;31.73;;
36441;SDS011;64346;50.820;16.274;2023-01-24T14:26:23;79.47;;;31.30;;
36441;SDS011;64346;50.820;16.274;2023-01-24T14:28:55;94.22;;;30.65;;
36441;SDS011;64346;50.820;16.274;2023-01-24T14:31:29;95.97;;;32.08;;
36441;SDS011;64346;50.820;16.274;2023-01-24T14:34:11;83.53;;;28.10;;
36441;SDS011;64346;50.820;16.274;2023-01-24T14:36:58;84.95;;;30.25;;
36441;SDS011;64346;50.820;16.274;2023-01-24T14:39:29;77.13;;;31.00;;
36441;SDS011;64346;50.820;16.274;2023-01-24T14:41:57;108.80;;;32.78;;
36441;SDS011;64346;50.820;16.274;2023-01-24T14:47:19;113.45;;;31.17;;
36441;SDS011;64346;50.820;16.274;2023-01-24T14:49:55;82.43;;;29.60;;
36441;SDS011;64346;50.820;16.274;2023-01-24T14:52:27;85.53;;;31.40;;
36441;SDS011;64346;50.820;16.274;2023-01-24T14:54:57;94.93;;;30.35;;
36441;SDS011;64346;50.820;16.274;2023-01-24T15:00:02;74.70;;;31.65;;
36441;SDS011;64346;50.820;16.274;2023-01-24T15:02:30;179.65;;;33.50;;
36441;SDS011;64346;50.820;16.274;2023-01-24T15:04:58;75.35;;;30.77;;
36441;SDS011;64346;50.820;16.274;2023-01-24T15:07:25;80.47;;;30.85;;
36441;SDS011;64346;50.820;16.274;2023-01-24T15:09:53;82.80;;;30.95;;
36441;SDS011;64346;50.820;16.274;2023-01-24T15:12:31;81.85;;;32.42;;
36441;SDS011;64346;50.820;16.274;2023-01-24T15:15:00;82.38;;;29.70;;
36441;SDS011;64346;50.820;16.274;2023-01-24T15:17:30;83.53;;;32.58;;
36441;SDS011;64346;50.820;16.274;2023-01-24T15:20:08;105.75;;;31.30;;
36441;SDS011;64346;50.820;16.274;2023-01-24T15:22:39;85.47;;;31.52;;
36441;SDS011;64346;50.820;16.274;2023-01-24T15:25:21;78.78;;;33.15;;
36441;SDS011;64346;50.820;16.274;2023-01-24T15:27:49;76.78;;;32.58;;
36441;SDS011;64346;50.820;16.274;2023-01-24T15:30:18;84.20;;;30.40;;
36441;SDS011;64346;50.820;16.274;2023-01-24T15:41:20;94.93;;;31.75;;
36441;SDS011;64346;50.820;16.274;2023-01-24T15:43:55;83.85;;;31.85;;
36441;SDS011;64346;50.820;16.274;2023-01-24T15:46:38;71.88;;;31.05;;
36441;SDS011;64346;50.820;16.274;2023-01-24T15:54:26;65.88;;;28.60;;
36441;SDS011;64346;50.820;16.274;2023-01-24T15:56:56;66.53;;;33.25;;
36441;SDS011;64346;50.820;16.274;2023-01-24T15:59:26;90.55;;;31.85;;
36441;SDS011;64346;50.820;16.274;2023-01-24T16:01:55;66.82;;;27.73;;
36441;SDS011;64346;50.820;16.274;2023-01-24T16:04:22;72.78;;;28.48;;
36441;SDS011;64346;50.820;16.274;2023-01-24T16:06:53;62.60;;;28.02;;
36441;SDS011;64346;50.820;16.274;2023-01-24T16:09:20;52.53;;;24.52;;
36441;SDS011;64346;50.820;16.274;2023-01-24T16:11:47;49.40;;;22.70;;
36441;SDS011;64346;50.820;16.274;2023-01-24T16:14:18;39.83;;;21.40;;
36441;SDS011;64346;50.820;16.274;2023-01-24T16:16:48;47.78;;;21.83;;
36441;SDS011;64346;50.820;16.274;2023-01-24T16:19:20;46.33;;;22.67;;
36441;SDS011;64346;50.820;16.274;2023-01-24T16:21:49;54.08;;;25.73;;
36441;SDS011;64346;50.820;16.274;2023-01-24T16:24:19;46.95;;;22.52;;
36441;SDS011;64346;50.820;16.274;2023-01-24T16:26:47;52.38;;;21.27;;
36441;SDS011;64346;50.820;16.274;2023-01-24T16:29:23;54.20;;;20.58;;
36441;SDS011;64346;50.820;16.274;2023-01-24T16:31:53;54.67;;;23.40;;
36441;SDS011;64346;50.820;16.274;2023-01-24T16:34:21;51.92;;;24.83;;
36441;SDS011;64346;50.820;16.274;2023-01-24T16:36:48;55.08;;;23.63;;
36441;SDS011;64346;50.820;16.274;2023-01-24T16:39:16;58.80;;;23.85;;
36441;SDS011;64346;50.820;16.274;2023-01-24T16:41:49;50.60;;;22.77;;
36441;SDS011;64346;50.820;16.274;2023-01-24T16:44:16;47.63;;;21.90;;
36441;SDS011;64346;50.820;16.274;2023-01-24T16:46:48;94.47;;;28.02;;
36441;SDS011;64346;50.820;16.274;2023-01-24T16:49:17;42.67;;;19.10;;
36441;SDS011;64346;50.820;16.274;2023-01-24T16:51:45;54.25;;;23.73;;
36441;SDS011;64346;50.820;16.274;2023-01-24T16:54:13;56.60;;;25.75;;